TFM - Tactical Decision Aid
ID: Runway Winds: CIG/VIS Threshold:

KORD - Chicago/O'Hare Intl, IL, US

Updated at: 0508 UTC 30 Jun 2022
Latest TAF at: 0232 UTC 30 Jun 2022

TAF Board

Time0451Z 30/06Z 30/07Z 30/08Z 30/09Z 30/10Z 30/11Z 30/12Z 30/13Z 30/14Z 30/15Z 30/16Z 30/17Z 30/18Z>>
Type OBS PRVL PRVL PRVL PRVL PRVL PRVL PRVL PRVL PRVL PRVL PRVL PRVL PRVL
VIS 10 >6 >6 >6 >6 >6 >6 >6 >6 >6 >6 >6 >6 >6
CIG -- -- -- -- -- -- -- -- -- -- -- -- -- --
Cover CLR SKC SKC SKC FEW FEW FEW FEW FEW FEW FEW FEW FEW FEW
FltCat VFR VFR VFR VFR VFR VFR VFR VFR VFR VFR VFR VFR VFR VFR
WX -- -- -- -- -- -- -- -- -- -- -- -- -- --
WDir 170 110 110 110 210 210 210 210 210 210 210 210 210 210
WSpd 4 7 7 7 8 8 8 8 8 8 13 13 13 13
WGst -- -- -- -- -- -- -- -- -- -- 24 24 24 24
WSHgt -- -- -- -- -- -- -- -- -- -- -- -- -- --
WSDir -- -- -- -- -- -- -- -- -- -- -- -- -- --
WSSpd -- -- -- -- -- -- -- -- -- -- -- -- -- --
R04L/22
XWnd -3 -7 -7 -7 -1 -1 -1 -1 -1 -1 -2 -2 -2 -2
XGst -- -- -- -- -- -- -- -- -- -- -4 -4 -4 -4
HWnd -3 2 2 2 -8 -8 -8 -8 -8 -8 -13 -13 -13 -13
HGst -- -- -- -- -- -- -- -- -- -- -24 -24 -24 -24
R04R/22
XWnd -3 -6 -6 -6 -2 -2 -2 -2 -2 -2 -3 -3 -3 -3
XGst -- -- -- -- -- -- -- -- -- -- -5 -5 -5 -5
HWnd -2 3 3 3 -8 -8 -8 -8 -8 -8 -13 -13 -13 -13
HGst -- -- -- -- -- -- -- -- -- -- -23 -23 -23 -23
R09/27
XWnd -4 -2 -2 -2 -7 -7 -7 -7 -7 -7 -11 -11 -11 -11
XGst -- -- -- -- -- -- -- -- -- -- -21 -21 -21 -21
HWnd 1 7 7 7 -4 -4 -4 -4 -4 -4 -7 -7 -7 -7
HGst -- -- -- -- -- -- -- -- -- -- -12 -12 -12 -12
R10/28
XWnd -4 -2 -2 -2 -7 -7 -7 -7 -7 -7 -11 -11 -11 -11
XGst -- -- -- -- -- -- -- -- -- -- -21 -21 -21 -21
HWnd 1 7 7 7 -4 -4 -4 -4 -4 -4 -7 -7 -7 -7
HGst -- -- -- -- -- -- -- -- -- -- -12 -12 -12 -12

TDA Impact Legend

  None Marginal Slight Moderate High
Visibility (sm) >5 2.9≤X≤5 0.9≤X<2.9 <0.9
Ceiling (100 ft) >30 9.9≤X≤30 4.9≤X<9.9 <4.9
Wind Speed (kt) <15 15≤X<25 25≤X<30 ≥30
Wind Gust (kt) <15 15≤X<25 25≤X<35 ≥35
Weather No Wx Reported VCTS -TS,-FZRA TS,FZRA +TS,+FZRA
TAF
KORD 300232Z 3003/0106 11007KT P6SM SKC
  FM300900 21008KT P6SM FEW250
  FM301500 21013G24KT P6SM FEW250
  FM010300 21010KT P6SM FEW250


METAR
KORD 300451Z 17004KT 10SM CLR 23/16 A3012 RMK AO2 SLP193 T02330161
KORD 300351Z 14005KT 10SM CLR 23/16 A3012 RMK AO2 SLP193 T02330156
KORD 300251Z 11004KT 10SM CLR 24/14 A3013 RMK AO2 SLP196 T02440144 53005
KORD 300151Z 09005KT 10SM CLR 26/14 A3012 RMK AO2 SLP193 T02560144

Radar Display
Forecast Discussion